Time;durP1;ratioP1;P1;durP2;ratioP2;P2;SDS_P1;SDS_P2;PMS_P1;PMS_P2;Temp;Humidity;BMP_temperature;BMP_pressure;BME280_temperature;BME280_humidity;BME280_pressure;Samples;Min_cycle;Max_cycle;Signal;HPM_P1;HPM_P2
2023/04/23 00:00:49;;;;;;;2.67;2.20;;;15.10;97.30;;;;;;4934562;29;20266;-88
2023/04/23 00:03:19;;;;;;;9.03;3.93;;;15.10;97.30;;;;;;4953740;29;20419;-89
2023/04/23 00:05:51;;;;;;;4.10;3.20;;;15.00;97.30;;;;;;4951478;29;20434;-87
2023/04/23 00:08:18;;;;;;;3.17;2.90;;;15.00;97.30;;;;;;4942263;29;20923;-88
2023/04/23 00:10:46;;;;;;;8.20;4.33;;;15.00;97.30;;;;;;4944395;29;20503;-88
2023/04/23 00:13:16;;;;;;;2.50;2.30;;;15.00;97.30;;;;;;4943921;29;20436;-89
2023/04/23 00:15:50;;;;;;;3.10;2.50;;;15.00;97.30;;;;;;4955131;28;20706;-87
2023/04/23 00:18:18;;;;;;;6.63;4.13;;;15.00;97.30;;;;;;4955162;29;20459;-88
2023/04/23 00:20:44;;;;;;;7.30;3.53;;;14.90;97.30;;;;;;4948489;28;20451;-88
2023/04/23 00:23:10;;;;;;;5.10;3.63;;;14.80;97.30;;;;;;4949706;29;20696;-89
2023/04/23 00:25:35;;;;;;;3.40;2.57;;;14.80;97.30;;;;;;4954237;29;20183;-88
2023/04/23 00:28:01;;;;;;;3.70;2.83;;;14.80;97.30;;;;;;4955054;29;20203;-89
2023/04/23 00:30:27;;;;;;;2.70;2.50;;;14.70;97.30;;;;;;4957865;28;20277;-89
2023/04/23 00:32:52;;;;;;;21.87;3.20;;;14.70;97.30;;;;;;4954837;28;21030;-88
2023/04/23 00:35:19;;;;;;;5.50;3.00;;;14.70;97.30;;;;;;4954315;29;20179;-90
2023/04/23 00:37:45;;;;;;;4.67;3.93;;;14.60;97.30;;;;;;4964556;28;20202;-89
2023/04/23 00:40:11;;;;;;;6.40;3.30;;;14.60;97.30;;;;;;4947181;28;20419;-89
2023/04/23 00:42:38;;;;;;;3.97;3.70;;;14.60;97.30;;;;;;4947066;29;20241;-88
2023/04/23 00:45:07;;;;;;;2.40;2.20;;;14.50;97.30;;;;;;4954748;29;20563;-88
2023/04/23 00:47:33;;;;;;;4.70;2.60;;;14.50;97.30;;;;;;4961431;28;20451;-89
2023/04/23 00:49:59;;;;;;;2.93;2.70;;;14.60;97.30;;;;;;4937044;29;20465;-89
2023/04/23 00:52:25;;;;;;;8.03;2.83;;;14.60;97.30;;;;;;4951298;29;21020;-90
2023/04/23 00:54:50;;;;;;;3.90;2.90;;;14.60;97.30;;;;;;4951717;28;20419;-89
2023/04/23 00:57:18;;;;;;;1.80;1.70;;;14.50;97.30;;;;;;4944449;29;20278;-89
2023/04/23 00:59:45;;;;;;;4.57;2.70;;;14.50;97.30;;;;;;4954500;28;20656;-88
2023/04/23 01:02:11;;;;;;;1.67;1.57;;;14.50;97.30;;;;;;4943707;29;20430;-89
2023/04/23 01:04:59;;;;;;;2.87;2.40;;;14.50;97.30;;;;;;4953623;28;20423;-87
2023/04/23 01:07:50;;;;;;;2.63;2.37;;;14.50;97.30;;;;;;4940244;29;20956;-89
2023/04/23 01:10:51;;;;;;;10.27;4.67;;;14.60;97.30;;;;;;4935819;29;20462;-88
2023/04/23 01:13:21;;;;;;;1.70;1.53;;;14.60;97.30;;;;;;4957262;28;20483;-88
2023/04/23 01:18:20;;;;;;;7.20;3.37;;;14.60;97.30;;;;;;4984303;23;20485;-88
2023/04/23 01:20:50;;;;;;;4.60;2.13;;;14.50;97.30;;;;;;4971443;28;20417;-86
2023/04/23 01:23:18;;;;;;;1.87;1.70;;;14.40;97.30;;;;;;4965653;28;20424;-88
2023/04/23 01:25:51;;;;;;;4.10;2.73;;;14.40;97.30;;;;;;4972257;28;20431;-87
2023/04/23 01:28:20;;;;;;;2.23;2.03;;;14.40;97.30;;;;;;4935003;28;20415;-88
2023/04/23 01:30:48;;;;;;;2.80;2.33;;;14.40;97.30;;;;;;4942640;28;20856;-88
2023/04/23 01:33:17;;;;;;;3.40;2.60;;;14.40;97.30;;;;;;4949474;29;20419;-88
2023/04/23 01:35:48;;;;;;;1.93;1.60;;;14.30;97.30;;;;;;4935053;29;20407;-88
2023/04/23 01:38:17;;;;;;;10.93;4.67;;;14.20;97.30;;;;;;4957100;28;20406;-87
2023/04/23 01:40:43;;;;;;;4.93;2.23;;;14.10;97.30;;;;;;4955179;28;20423;-87
2023/04/23 01:43:08;;;;;;;4.80;2.33;;;14.10;97.30;;;;;;4938334;29;20939;-87
2023/04/23 01:45:34;;;;;;;2.70;2.50;;;14.10;97.30;;;;;;4935584;29;20559;-87
2023/04/23 01:48:00;;;;;;;2.97;2.63;;;14.00;97.30;;;;;;4964849;28;20709;-88
2023/04/23 01:50:26;;;;;;;8.23;2.40;;;14.00;97.30;;;;;;4946258;29;20211;-88
2023/04/23 01:52:52;;;;;;;3.03;2.50;;;14.00;97.30;;;;;;4947512;29;20234;-88
2023/04/23 01:55:20;;;;;;;3.47;2.03;;;14.10;97.30;;;;;;4960702;28;20418;-88
2023/04/23 01:57:54;;;;;;;3.20;3.00;;;14.10;97.30;;;;;;4951384;23;20339;-87
2023/04/23 02:00:20;;;;;;;4.50;3.20;;;14.10;97.30;;;;;;4950713;28;20435;-87
2023/04/23 02:02:52;;;;;;;5.07;3.70;;;14.20;97.30;;;;;;4967847;28;20414;-87
2023/04/23 02:05:19;;;;;;;2.80;2.50;;;14.20;97.30;;;;;;4956833;28;20194;-87
2023/04/23 02:07:51;;;;;;;5.23;2.43;;;14.20;97.30;;;;;;4950319;28;20526;-88
2023/04/23 02:10:20;;;;;;;3.10;2.00;;;14.20;97.30;;;;;;4934151;29;20554;-86
2023/04/23 02:12:48;;;;;;;2.90;2.70;;;14.10;97.30;;;;;;4935361;29;20427;-88
2023/04/23 02:15:14;;;;;;;3.53;3.10;;;14.10;97.30;;;;;;4953777;29;20505;-87
2023/04/23 02:17:40;;;;;;;1.60;1.50;;;14.10;97.30;;;;;;4945155;28;20470;-87
2023/04/23 02:20:08;;;;;;;4.50;2.87;;;14.10;97.30;;;;;;4945509;29;20948;-87
2023/04/23 02:22:41;;;;;;;6.03;3.50;;;14.10;97.30;;;;;;4939162;28;20720;-87
2023/04/23 02:25:10;;;;;;;5.03;3.83;;;14.10;97.30;;;;;;4939174;29;20693;-87
2023/04/23 02:27:43;;;;;;;7.60;3.27;;;14.10;97.30;;;;;;4937546;29;20590;-87
2023/04/23 02:30:10;;;;;;;15.40;4.10;;;14.10;97.30;;;;;;4941573;29;20762;-87
2023/04/23 02:32:40;;;;;;;4.07;2.90;;;14.20;97.30;;;;;;4933977;29;20435;-87
2023/04/23 02:35:09;;;;;;;9.23;3.27;;;14.10;97.30;;;;;;4941728;29;20416;-87
2023/04/23 02:37:38;;;;;;;5.90;4.33;;;14.10;97.30;;;;;;4941923;28;20464;-88
2023/04/23 02:40:09;;;;;;;3.40;2.60;;;14.10;97.30;;;;;;4937777;29;20982;-88
2023/04/23 02:42:37;;;;;;;4.57;2.10;;;14.10;97.30;;;;;;4938002;29;20518;-87
2023/04/23 02:45:11;;;;;;;2.80;2.57;;;14.10;97.30;;;;;;4949877;29;21016;-87
2023/04/23 02:47:39;;;;;;;27.93;3.70;;;14.10;97.30;;;;;;4933702;29;20447;-87
2023/04/23 02:50:05;;;;;;;6.50;3.47;;;14.10;97.30;;;;;;4929209;29;20470;-87
2023/04/23 02:52:31;;;;;;;3.33;2.23;;;14.10;97.30;;;;;;4951993;28;20459;-87
2023/04/23 02:55:01;;;;;;;2.20;2.00;;;14.10;97.30;;;;;;4936983;29;20806;-87
2023/04/23 02:57:27;;;;;;;8.40;2.90;;;14.00;97.30;;;;;;4952416;28;20544;-88
2023/04/23 02:59:53;;;;;;;3.67;3.07;;;14.00;97.30;;;;;;4944765;29;20514;-89
2023/04/23 03:02:21;;;;;;;3.07;2.60;;;14.00;97.30;;;;;;4947570;29;20195;-87
2023/04/23 03:04:50;;;;;;;4.07;3.10;;;14.00;97.30;;;;;;4941381;29;20191;-87
2023/04/23 03:07:33;;;;;;;3.50;2.70;;;14.00;97.30;;;;;;4933300;29;20475;-87
2023/04/23 03:10:01;;;;;;;6.97;4.97;;;13.90;97.30;;;;;;4933374;29;20471;-87
2023/04/23 03:12:27;;;;;;;2.40;1.87;;;13.80;97.30;;;;;;4939802;29;20463;-87
2023/04/23 03:14:52;;;;;;;4.23;2.53;;;13.80;97.30;;;;;;4943202;29;20482;-87
2023/04/23 03:17:20;;;;;;;2.27;2.07;;;13.80;97.30;;;;;;4941153;29;20207;-87
2023/04/23 03:19:49;;;;;;;2.37;2.17;;;13.80;97.30;;;;;;4949700;29;20183;-88
2023/04/23 03:22:30;;;;;;;2.97;2.67;;;13.80;97.30;;;;;;4942355;29;20431;-88
2023/04/23 03:25:02;;;;;;;3.73;3.00;;;13.80;97.30;;;;;;4934031;29;20439;-86
2023/04/23 03:27:31;;;;;;;4.77;3.07;;;13.80;97.30;;;;;;4932996;29;20487;-87
2023/04/23 03:29:59;;;;;;;2.90;2.63;;;13.80;97.30;;;;;;4934991;29;20781;-87
2023/04/23 03:32:30;;;;;;;2.30;1.80;;;13.80;97.30;;;;;;4952294;29;20423;-87
2023/04/23 03:34:58;;;;;;;10.50;3.17;;;13.80;97.30;;;;;;4942707;29;20435;-88
2023/04/23 03:37:31;;;;;;;4.67;4.37;;;13.80;97.30;;;;;;4946894;28;20815;-87
2023/04/23 03:40:02;;;;;;;7.50;1.80;;;13.80;97.30;;;;;;4952785;29;20433;-87
2023/04/23 03:42:27;;;;;;;23.37;3.73;;;13.80;97.30;;;;;;4951753;29;20416;-90
2023/04/23 03:45:00;;;;;;;5.50;3.07;;;13.70;97.30;;;;;;4966284;29;20434;-89
2023/04/23 03:47:28;;;;;;;2.30;1.97;;;13.70;97.30;;;;;;4967309;29;20266;-90
2023/04/23 03:49:56;;;;;;;5.70;3.40;;;13.70;97.30;;;;;;4975094;29;20717;-90
2023/04/23 03:52:21;;;;;;;5.97;4.03;;;13.60;97.30;;;;;;4975172;29;20423;-90
2023/04/23 03:54:47;;;;;;;3.10;2.90;;;13.60;97.30;;;;;;4958573;29;20984;-88
2023/04/23 03:57:15;;;;;;;3.87;2.60;;;13.60;97.30;;;;;;4955577;29;20289;-89
2023/04/23 03:59:40;;;;;;;1.80;1.70;;;13.60;97.30;;;;;;4963449;29;20190;-93
2023/04/23 04:02:06;;;;;;;7.33;4.10;;;13.60;97.30;;;;;;4959797;29;20435;-91
2023/04/23 04:04:32;;;;;;;4.03;3.17;;;13.70;97.30;;;;;;4960288;29;20184;-91
2023/04/23 04:07:01;;;;;;;3.20;2.20;;;13.70;97.30;;;;;;4965554;29;20223;-91
2023/04/23 04:09:27;;;;;;;4.40;3.17;;;13.70;97.30;;;;;;4975232;28;20562;-90
2023/04/23 04:11:53;;;;;;;2.57;2.37;;;13.70;97.30;;;;;;4951906;29;20446;-88
2023/04/23 04:14:20;;;;;;;5.27;4.20;;;13.80;97.30;;;;;;4932478;29;20430;-88
2023/04/23 04:16:45;;;;;;;4.37;2.93;;;13.80;97.30;;;;;;4948476;28;20466;-88
2023/04/23 04:19:11;;;;;;;4.03;2.10;;;13.80;97.30;;;;;;4940156;29;20428;-86
2023/04/23 04:21:36;;;;;;;4.37;2.67;;;13.80;97.30;;;;;;4940105;29;20219;-87
2023/04/23 04:24:05;;;;;;;3.00;2.03;;;13.80;97.30;;;;;;4942612;29;20603;-87
2023/04/23 04:26:31;;;;;;;2.30;2.10;;;13.90;97.30;;;;;;4951310;28;20214;-87
2023/04/23 04:29:00;;;;;;;3.60;2.30;;;13.90;97.30;;;;;;4941541;29;20462;-88
2023/04/23 04:31:27;;;;;;;3.20;3.00;;;13.90;97.30;;;;;;4932088;29;20408;-88
2023/04/23 04:33:54;;;;;;;1.70;1.43;;;13.90;97.30;;;;;;4940171;29;20451;-87
2023/04/23 04:36:20;;;;;;;2.50;2.30;;;13.90;97.30;;;;;;4931867;29;21043;-87
2023/04/23 04:38:45;;;;;;;2.73;2.53;;;13.90;97.30;;;;;;4931709;29;20519;-88
2023/04/23 04:41:12;;;;;;;3.50;2.30;;;13.90;97.30;;;;;;4946889;29;20179;-87
2023/04/23 04:43:37;;;;;;;3.57;2.57;;;13.80;97.30;;;;;;4946647;29;20645;-88
2023/04/23 04:46:04;;;;;;;13.40;1.80;;;13.80;97.30;;;;;;4940437;29;20431;-87
2023/04/23 04:48:29;;;;;;;4.47;3.23;;;13.80;97.30;;;;;;4931732;29;20180;-86
2023/04/23 04:50:55;;;;;;;2.53;2.33;;;13.80;97.30;;;;;;4949119;29;20951;-86
2023/04/23 04:53:21;;;;;;;4.53;3.13;;;13.80;97.30;;;;;;4950799;29;20183;-87
2023/04/23 04:55:46;;;;;;;4.07;2.93;;;13.80;97.30;;;;;;4935080;28;20420;-86
2023/04/23 04:58:15;;;;;;;27.93;4.40;;;13.80;97.30;;;;;;4950653;29;20219;-87
2023/04/23 05:00:41;;;;;;;9.23;3.47;;;13.80;97.30;;;;;;4951029;29;20222;-87
2023/04/23 05:03:06;;;;;;;4.77;3.30;;;13.80;97.30;;;;;;4942965;29;20872;-87
2023/04/23 05:05:33;;;;;;;13.03;3.47;;;13.80;97.30;;;;;;4942812;29;20193;-87
2023/04/23 05:08:01;;;;;;;3.60;2.73;;;13.90;97.30;;;;;;4944145;28;20235;-87
2023/04/23 05:10:27;;;;;;;2.63;2.27;;;13.80;97.30;;;;;;4937474;29;21079;-87
2023/04/23 05:12:55;;;;;;;4.53;3.13;;;13.80;97.30;;;;;;4947291;29;20497;-87
2023/04/23 05:15:21;;;;;;;4.93;2.30;;;13.80;97.30;;;;;;4939635;29;20427;-88
2023/04/23 05:17:46;;;;;;;2.37;1.83;;;13.90;97.30;;;;;;4943289;29;20443;-91
2023/04/23 05:20:13;;;;;;;3.53;3.10;;;13.80;97.30;;;;;;4935733;29;20250;-87
2023/04/23 05:22:40;;;;;;;4.40;2.03;;;13.80;97.30;;;;;;4935243;29;20577;-87
2023/04/23 05:25:06;;;;;;;1.27;1.17;;;13.80;97.30;;;;;;4953703;29;20501;-87
2023/04/23 05:27:33;;;;;;;7.87;1.80;;;13.80;97.30;;;;;;4940430;28;20538;-87
2023/04/23 05:30:00;;;;;;;1.53;1.47;;;13.80;97.30;;;;;;4950942;29;20466;-86
2023/04/23 05:32:28;;;;;;;1.50;1.40;;;13.90;97.30;;;;;;4936495;29;20780;-87
2023/04/23 05:34:54;;;;;;;1.60;1.40;;;13.90;97.30;;;;;;4943976;29;20462;-87
2023/04/23 05:37:20;;;;;;;2.03;1.77;;;13.90;97.30;;;;;;4951097;28;20518;-87
2023/04/23 05:39:48;;;;;;;6.53;3.40;;;13.90;97.30;;;;;;4952738;29;20522;-86
2023/04/23 05:42:21;;;;;;;5.17;2.10;;;14.00;97.30;;;;;;4955290;28;20691;-86
2023/04/23 05:44:50;;;;;;;2.30;2.10;;;14.00;97.30;;;;;;4938466;29;20462;-86
2023/04/23 05:47:30;;;;;;;3.47;3.33;;;14.00;97.30;;;;;;4927601;29;20439;-86
2023/04/23 05:50:01;;;;;;;1.80;1.60;;;14.00;97.30;;;;;;4934878;29;20494;-86
2023/04/23 05:52:32;;;;;;;2.40;1.97;;;14.10;97.30;;;;;;4940289;29;20423;-85
2023/04/23 05:55:00;;;;;;;3.97;1.90;;;14.10;97.30;;;;;;4936077;29;20598;-85
2023/04/23 05:57:31;;;;;;;2.73;2.20;;;14.10;97.30;;;;;;4934400;29;20529;-86
2023/04/23 06:02:49;;;;;;;1.20;1.10;;;14.30;97.30;;;;;;4939037;29;20442;-85
2023/04/23 06:05:31;;;;;;;1.60;1.40;;;14.40;97.30;;;;;;4934837;29;20420;-86
2023/04/23 06:07:59;;;;;;;1.13;1.03;;;14.40;97.30;;;;;;4942447;29;20211;-86
2023/04/23 06:10:25;;;;;;;1.10;1.00;;;14.40;97.30;;;;;;4940592;29;20493;-86
2023/04/23 06:12:52;;;;;;;5.37;2.00;;;14.40;97.30;;;;;;4945599;29;20430;-87
2023/04/23 06:15:18;;;;;;;1.87;1.77;;;14.40;97.30;;;;;;4945485;29;20198;-86
2023/04/23 06:17:43;;;;;;;1.37;1.23;;;14.40;97.30;;;;;;4945632;28;20979;-86
2023/04/23 06:20:10;;;;;;;3.17;2.13;;;14.40;97.30;;;;;;4951113;29;20546;-86
2023/04/23 06:22:36;;;;;;;2.30;1.60;;;14.50;97.30;;;;;;4948770;29;20333;-86
2023/04/23 06:25:01;;;;;;;3.90;2.00;;;14.50;97.30;;;;;;4952292;29;20522;-86
2023/04/23 06:27:27;;;;;;;3.73;2.00;;;14.50;97.30;;;;;;4962745;28;20183;-86
2023/04/23 06:29:52;;;;;;;1.83;1.73;;;14.50;97.30;;;;;;4968624;28;20218;-86
2023/04/23 06:32:18;;;;;;;1.60;1.50;;;14.60;97.30;;;;;;4938427;29;20318;-86
2023/04/23 06:34:46;;;;;;;1.83;1.27;;;14.60;97.30;;;;;;4951040;29;20567;-87
2023/04/23 06:37:12;;;;;;;1.93;1.70;;;14.60;97.30;;;;;;4936719;29;20195;-86
2023/04/23 06:39:37;;;;;;;2.33;2.03;;;14.70;97.30;;;;;;4938670;29;20945;-87
2023/04/23 06:42:05;;;;;;;2.33;2.13;;;14.70;97.30;;;;;;4933817;29;20184;-86
2023/04/23 06:44:30;;;;;;;1.20;1.13;;;14.80;97.30;;;;;;4933781;29;20191;-87
2023/04/23 06:46:56;;;;;;;2.17;1.87;;;14.80;97.30;;;;;;4942347;29;20542;-87
2023/04/23 06:49:21;;;;;;;1.70;1.60;;;14.80;97.30;;;;;;4945299;29;20210;-86
2023/04/23 06:51:47;;;;;;;5.80;1.77;;;14.80;97.30;;;;;;4937563;29;20180;-87
2023/04/23 06:54:12;;;;;;;3.50;3.20;;;14.80;97.30;;;;;;4933809;29;20207;-86
2023/04/23 06:56:38;;;;;;;1.33;1.23;;;14.90;97.30;;;;;;4947714;29;20282;-87
2023/04/23 06:59:04;;;;;;;7.37;2.03;;;14.80;97.30;;;;;;4952938;29;20191;-85
2023/04/23 07:01:29;;;;;;;4.57;1.70;;;14.80;97.30;;;;;;4940085;29;20676;-86
2023/04/23 07:03:55;;;;;;;0.90;0.80;;;14.80;97.30;;;;;;4943076;29;20247;-86
2023/04/23 07:06:20;;;;;;;2.47;1.93;;;14.80;97.30;;;;;;4944694;29;20269;-86
2023/04/23 07:08:46;;;;;;;2.70;1.83;;;14.80;97.30;;;;;;4944835;29;20183;-86
2023/04/23 07:11:11;;;;;;;1.27;1.20;;;14.80;97.30;;;;;;4933705;29;20326;-86
2023/04/23 07:13:38;;;;;;;2.87;1.43;;;14.80;97.30;;;;;;4933561;29;20523;-85
2023/04/23 07:16:03;;;;;;;1.53;1.37;;;14.80;97.30;;;;;;4942595;28;20188;-86
2023/04/23 07:18:29;;;;;;;1.70;1.60;;;14.80;97.30;;;;;;4939975;29;20840;-86
2023/04/23 07:20:55;;;;;;;1.17;1.07;;;14.90;97.30;;;;;;4950848;29;20186;-85
2023/04/23 07:23:20;;;;;;;7.00;1.60;;;15.00;97.30;;;;;;4940788;29;20691;-86
2023/04/23 07:25:46;;;;;;;1.67;1.30;;;14.90;97.30;;;;;;4941000;29;20522;-86
2023/04/23 07:28:12;;;;;;;2.90;1.60;;;14.90;97.30;;;;;;4944065;29;20187;-85
2023/04/23 07:30:37;;;;;;;2.60;1.70;;;14.80;97.30;;;;;;4944191;29;20790;-86
2023/04/23 07:33:03;;;;;;;1.33;1.23;;;14.80;97.30;;;;;;4936487;29;20279;-86
2023/04/23 07:35:28;;;;;;;1.40;1.30;;;14.70;97.30;;;;;;4939628;29;20440;-86
2023/04/23 07:37:56;;;;;;;1.87;1.67;;;14.70;97.30;;;;;;4942049;29;20249;-84
2023/04/23 07:40:23;;;;;;;1.70;1.67;;;14.50;97.30;;;;;;4944138;28;20652;-84
2023/04/23 07:42:49;;;;;;;1.60;1.50;;;14.30;97.30;;;;;;4936662;29;20481;-84
2023/04/23 07:45:14;;;;;;;1.60;1.50;;;14.10;97.30;;;;;;4935739;29;20435;-83
2023/04/23 07:47:40;;;;;;;1.63;1.53;;;14.00;97.30;;;;;;4945897;28;20447;-83
2023/04/23 07:50:06;;;;;;;1.00;0.90;;;13.80;97.30;;;;;;4942485;29;20842;-83
2023/04/23 07:52:32;;;;;;;1.47;1.33;;;13.80;97.30;;;;;;4938723;29;20259;-83
2023/04/23 07:55:00;;;;;;;1.40;1.30;;;13.80;97.30;;;;;;4940801;29;20875;-83
2023/04/23 07:57:25;;;;;;;1.47;1.37;;;13.80;97.30;;;;;;4940274;29;20259;-84
2023/04/23 07:59:51;;;;;;;1.97;1.50;;;13.90;97.30;;;;;;4932552;29;20456;-83
2023/04/23 08:02:17;;;;;;;1.37;1.37;;;13.90;97.30;;;;;;4941605;29;20700;-84
2023/04/23 08:04:42;;;;;;;2.10;1.53;;;14.00;97.30;;;;;;4940404;29;20184;-84
2023/04/23 08:07:08;;;;;;;2.60;1.30;;;14.10;97.30;;;;;;4932312;29;20443;-84
2023/04/23 08:09:33;;;;;;;1.67;1.63;;;14.10;97.30;;;;;;4941311;29;20216;-84
2023/04/23 08:11:59;;;;;;;1.57;1.40;;;14.10;97.30;;;;;;4932530;29;20233;-84
2023/04/23 08:14:26;;;;;;;1.83;1.60;;;14.10;97.30;;;;;;4951441;29;20202;-83
2023/04/23 08:16:52;;;;;;;2.20;1.70;;;14.10;97.30;;;;;;4935582;29;20637;-83
2023/04/23 08:19:17;;;;;;;1.13;1.03;;;14.00;97.30;;;;;;4940040;29;20443;-84
2023/04/23 08:21:43;;;;;;;0.93;0.87;;;14.10;97.30;;;;;;4932018;29;20184;-84
2023/04/23 08:24:08;;;;;;;2.23;1.73;;;14.00;97.30;;;;;;4940079;29;20600;-84
2023/04/23 08:26:34;;;;;;;3.83;1.23;;;14.10;97.30;;;;;;4931970;29;20231;-84
2023/04/23 08:28:59;;;;;;;1.33;1.10;;;14.10;97.30;;;;;;4931902;29;20224;-83
2023/04/23 08:31:25;;;;;;;1.20;1.10;;;14.10;97.30;;;;;;4939942;29;20183;-84
2023/04/23 08:33:51;;;;;;;1.40;1.30;;;14.20;97.30;;;;;;4948638;29;20193;-85
2023/04/23 08:36:16;;;;;;;1.73;1.30;;;14.20;97.30;;;;;;4936142;29;20452;-85
2023/04/23 08:38:42;;;;;;;1.27;1.17;;;14.30;97.30;;;;;;4946524;29;20558;-84
2023/04/23 08:41:10;;;;;;;1.70;1.63;;;14.30;97.30;;;;;;4933186;29;20260;-84
2023/04/23 08:44:05;;;;;;;1.30;1.03;;;14.30;97.30;;;;;;4936006;29;20603;-84
2023/04/23 08:46:33;;;;;;;1.30;1.23;;;14.30;97.30;;;;;;4937809;28;20438;-85
2023/04/23 08:49:01;;;;;;;1.00;0.90;;;14.40;97.30;;;;;;4934370;29;20523;-84
2023/04/23 08:51:31;;;;;;;1.93;1.20;;;14.40;97.30;;;;;;4935434;29;20419;-85
2023/04/23 08:53:58;;;;;;;1.50;1.40;;;14.40;97.30;;;;;;4950571;29;20426;-84
2023/04/23 08:56:26;;;;;;;5.13;2.07;;;14.40;97.30;;;;;;4932498;29;20471;-84
2023/04/23 08:58:52;;;;;;;2.40;1.30;;;14.40;97.30;;;;;;4939239;29;20941;-85
2023/04/23 09:01:20;;;;;;;3.47;1.23;;;14.40;97.30;;;;;;4935966;28;20425;-85
2023/04/23 09:03:46;;;;;;;1.43;1.33;;;14.50;97.30;;;;;;4936519;29;20416;-85
2023/04/23 09:06:12;;;;;;;0.90;0.90;;;14.60;97.30;;;;;;4939228;29;20462;-85
2023/04/23 09:08:37;;;;;;;1.83;1.67;;;14.80;97.30;;;;;;4944728;29;20915;-85
2023/04/23 09:11:04;;;;;;;2.50;1.23;;;14.90;97.30;;;;;;4941918;29;20270;-85
2023/04/23 09:13:30;;;;;;;1.00;0.90;;;15.00;97.30;;;;;;4931705;29;20210;-86
2023/04/23 09:15:56;;;;;;;2.07;1.93;;;15.10;97.30;;;;;;4939313;29;20470;-86
2023/04/23 09:18:22;;;;;;;0.90;0.80;;;15.30;97.30;;;;;;4931464;29;20459;-86
2023/04/23 09:20:49;;;;;;;2.53;1.47;;;15.50;97.30;;;;;;4939815;29;20637;-86
2023/04/23 09:23:15;;;;;;;2.43;2.30;;;15.60;97.30;;;;;;4931868;29;20179;-87
2023/04/23 09:25:40;;;;;;;2.23;1.50;;;15.70;97.30;;;;;;4932092;29;20811;-86
2023/04/23 09:28:08;;;;;;;1.43;1.33;;;15.70;97.30;;;;;;4942744;29;20451;-85
2023/04/23 09:30:39;;;;;;;4.20;1.60;;;15.70;97.30;;;;;;4955024;29;20710;-86
2023/04/23 09:33:12;;;;;;;2.10;1.63;;;15.60;97.30;;;;;;4944636;29;20464;-86
2023/04/23 09:35:38;;;;;;;3.30;2.17;;;15.50;97.30;;;;;;4937187;29;20435;-86
2023/04/23 09:38:06;;;;;;;1.33;1.30;;;15.30;97.30;;;;;;4950121;28;20800;-86
2023/04/23 09:40:32;;;;;;;2.33;1.43;;;15.20;97.30;;;;;;4933063;29;20652;-87
2023/04/23 09:42:58;;;;;;;5.80;1.97;;;15.20;97.30;;;;;;4939812;29;20815;-86
2023/04/23 09:45:24;;;;;;;2.30;1.83;;;15.30;97.30;;;;;;4940100;29;20427;-87
2023/04/23 09:48:02;;;;;;;1.93;1.83;;;15.50;97.30;;;;;;4946745;29;20206;-87
2023/04/23 09:51:01;;;;;;;1.67;1.50;;;15.70;97.30;;;;;;4952005;29;20467;-87
2023/04/23 09:53:53;;;;;;;3.70;2.00;;;15.70;97.30;;;;;;4866368;29;20429;-87
2023/04/23 09:57:07;;;;;;;;;;;;;;;;;;;;;
2023/04/23 09:59:52;;;;;;;1.07;0.97;;;16.00;97.30;;;;;;4870736;29;20440;-86
2023/04/23 10:02:32;;;;;;;2.50;1.87;;;16.30;97.30;;;;;;4895669;29;20868;-87
2023/04/23 10:05:01;;;;;;;1.57;1.47;;;16.30;97.30;;;;;;4943636;29;20932;-87
2023/04/23 10:07:33;;;;;;;2.63;2.10;;;16.30;97.30;;;;;;4935326;29;20443;-86
2023/04/23 10:10:02;;;;;;;2.07;1.73;;;16.30;97.30;;;;;;4935560;29;20481;-87
2023/04/23 10:12:31;;;;;;;2.53;2.33;;;16.20;97.30;;;;;;4939358;29;20411;-87
2023/04/23 10:15:13;;;;;;;1.30;1.17;;;16.30;97.30;;;;;;4939438;29;20470;-86
2023/04/23 10:18:11;;;;;;;2.83;2.47;;;16.40;97.30;;;;;;4935119;29;20447;-87
2023/04/23 10:20:43;;;;;;;5.60;2.80;;;16.50;97.30;;;;;;4934361;29;20435;-87
2023/04/23 10:23:22;;;;;;;1.47;1.37;;;16.60;97.30;;;;;;4937183;29;20456;-88
2023/04/23 10:26:04;;;;;;;;;;;;;;;;;;;;;
2023/04/23 10:28:43;;;;;;;1.50;1.40;;;16.70;97.30;;;;;;4947861;29;20426;-87
2023/04/23 10:31:11;;;;;;;3.27;2.67;;;16.90;97.30;;;;;;4937168;29;20440;-86
2023/04/23 10:34:05;;;;;;;2.67;1.77;;;17.10;97.30;;;;;;4935259;29;20530;-87
2023/04/23 10:44:12;;;;;;;1.73;1.43;;;17.50;95.60;;;;;;5011869;28;20491;-86
2023/04/23 10:46:38;;;;;;;1.40;1.30;;;17.60;95.40;;;;;;4996506;28;20452;-87
2023/04/23 10:49:15;;;;;;;1.43;1.20;;;17.70;94.10;;;;;;4995677;28;20479;-86
2023/04/23 10:51:44;;;;;;;1.00;0.90;;;17.80;92.00;;;;;;5003464;28;20576;-87
2023/04/23 10:54:12;;;;;;;1.60;1.50;;;17.60;90.50;;;;;;5011494;28;20432;-86
2023/04/23 10:56:39;;;;;;;1.10;1.00;;;17.80;89.60;;;;;;4995020;28;20436;-86
2023/04/23 10:59:20;;;;;;;1.20;1.20;;;17.70;89.80;;;;;;5003047;28;20436;-85
2023/04/23 11:01:50;;;;;;;1.13;1.00;;;17.70;88.60;;;;;;4995053;28;20424;-86
2023/04/23 11:04:28;;;;;;;1.30;1.20;;;17.90;90.50;;;;;;4994959;28;20515;-86
2023/04/23 11:07:04;;;;;;;1.00;0.93;;;18.20;89.40;;;;;;5011203;28;20443;-87
2023/04/23 11:09:38;;;;;;;0.80;0.60;;;18.50;87.00;;;;;;4994640;28;21183;-86
2023/04/23 11:12:25;;;;;;;1.20;1.10;;;18.70;86.60;;;;;;4994925;28;20804;-85
2023/04/23 11:14:53;;;;;;;1.37;1.27;;;18.90;86.20;;;;;;4994515;28;20424;-86
2023/04/23 11:17:32;;;;;;;2.40;1.20;;;19.10;84.70;;;;;;5011953;28;20447;-86
2023/04/23 11:20:09;;;;;;;1.03;0.93;;;19.10;84.60;;;;;;5011017;28;20431;-87
2023/04/23 11:22:50;;;;;;;3.63;1.90;;;19.30;84.60;;;;;;4995022;28;20432;-86
2023/04/23 11:25:26;;;;;;;2.30;1.83;;;19.30;83.30;;;;;;5003982;28;20455;-86
2023/04/23 11:27:54;;;;;;;1.40;1.00;;;19.40;83.50;;;;;;5011005;28;20450;-87
2023/04/23 11:30:21;;;;;;;1.30;1.20;;;19.50;83.00;;;;;;4994861;28;20467;-86
2023/04/23 11:32:49;;;;;;;0.90;0.80;;;19.60;82.00;;;;;;4994755;28;20448;-87
2023/04/23 11:35:20;;;;;;;1.33;1.20;;;19.80;82.40;;;;;;5010279;28;20420;-86
2023/04/23 11:37:49;;;;;;;1.30;1.20;;;19.90;82.70;;;;;;4994302;28;20502;-86
2023/04/23 11:40:18;;;;;;;1.80;1.73;;;20.10;82.30;;;;;;5011437;28;20428;-86
2023/04/23 11:42:46;;;;;;;5.20;1.90;;;20.20;81.40;;;;;;5002625;28;20506;-87
2023/04/23 11:45:19;;;;;;;1.57;1.40;;;20.20;81.90;;;;;;4994591;28;20440;-87
2023/04/23 11:47:46;;;;;;;1.10;1.00;;;20.10;80.00;;;;;;5004195;28;21007;-86
2023/04/23 11:50:40;;;;;;;1.03;1.00;;;20.10;80.80;;;;;;4994332;28;20451;-86
2023/04/23 11:53:09;;;;;;;1.10;1.00;;;20.10;78.90;;;;;;4986587;28;20420;-85
2023/04/23 11:55:42;;;;;;;1.00;0.90;;;20.20;79.20;;;;;;5011839;28;20424;-86
2023/04/23 11:58:08;;;;;;;1.60;1.50;;;20.50;79.20;;;;;;4994296;28;20472;-86
2023/04/23 12:00:39;;;;;;;3.60;2.13;;;20.60;78.00;;;;;;4994568;28;20441;-86
2023/04/23 12:03:12;;;;;;;1.30;1.13;;;20.50;78.60;;;;;;5018686;28;20428;-85
2023/04/23 12:05:43;;;;;;;1.00;0.90;;;20.40;77.60;;;;;;5004559;28;20424;-85
2023/04/23 12:08:16;;;;;;;1.10;1.00;;;20.70;77.70;;;;;;5001794;28;20452;-86
2023/04/23 12:10:52;;;;;;;1.37;1.27;;;20.50;76.90;;;;;;4995876;28;20486;-87
2023/04/23 12:13:26;;;;;;;2.30;1.70;;;20.50;77.50;;;;;;4994735;28;20427;-87
2023/04/23 12:15:59;;;;;;;1.40;1.30;;;20.60;77.90;;;;;;5009864;28;20416;-86
2023/04/23 12:18:32;;;;;;;1.90;1.43;;;20.60;77.30;;;;;;4993597;28;20416;-86
2023/04/23 12:21:05;;;;;;;4.93;1.50;;;20.90;78.30;;;;;;5010027;28;20990;-86
2023/04/23 12:23:32;;;;;;;1.10;1.00;;;21.10;78.00;;;;;;5003036;28;20936;-86
2023/04/23 12:25:57;;;;;;;1.03;0.93;;;20.80;76.10;;;;;;4992927;28;20428;-86
2023/04/23 12:28:23;;;;;;;1.40;1.30;;;20.40;76.70;;;;;;4993179;28;20668;-86
2023/04/23 12:30:49;;;;;;;1.20;1.10;;;20.50;77.80;;;;;;4993674;28;20208;-86
2023/04/23 12:33:15;;;;;;;1.40;0.90;;;20.80;77.90;;;;;;5001585;28;20559;-87
2023/04/23 12:35:49;;;;;;;1.20;1.10;;;20.60;76.30;;;;;;5010261;28;20583;-86
2023/04/23 12:38:26;;;;;;;1.30;1.20;;;20.90;76.50;;;;;;5009827;28;20420;-87
2023/04/23 12:40:53;;;;;;;1.07;0.97;;;21.10;76.70;;;;;;5011794;28;20423;-87
2023/04/23 12:43:19;;;;;;;0.90;0.80;;;21.30;76.00;;;;;;4993303;28;20472;-86
2023/04/23 12:45:44;;;;;;;6.20;1.60;;;21.40;73.80;;;;;;5001770;28;20454;-86
2023/04/23 12:48:10;;;;;;;1.17;1.07;;;21.50;72.20;;;;;;4993281;28;20197;-86
2023/04/23 12:50:36;;;;;;;1.90;0.90;;;21.40;73.00;;;;;;4992658;28;20259;-86
2023/04/23 12:53:02;;;;;;;0.93;0.83;;;21.70;74.00;;;;;;5011012;28;20455;-86
2023/04/23 12:55:27;;;;;;;1.40;1.30;;;21.90;73.30;;;;;;5012789;28;20188;-86
2023/04/23 12:57:53;;;;;;;1.00;0.90;;;22.10;73.80;;;;;;5017471;28;20205;-86
2023/04/23 13:00:19;;;;;;;0.93;0.87;;;22.20;73.00;;;;;;5000939;28;20227;-86
2023/04/23 13:02:45;;;;;;;3.03;1.40;;;22.40;73.70;;;;;;5017369;28;20192;-86
2023/04/23 13:05:10;;;;;;;0.90;0.90;;;22.40;71.40;;;;;;5007843;28;20185;-86
2023/04/23 13:07:36;;;;;;;1.13;1.03;;;22.60;71.10;;;;;;5000977;28;20212;-87
2023/04/23 13:10:01;;;;;;;1.03;0.93;;;22.60;72.70;;;;;;4992920;28;20304;-87